createdAt,value
2018-12-07T00:00:39.515Z,12.90
2018-12-07T00:03:07.715Z,12.80
2018-12-07T00:05:39.526Z,12.70
2018-12-07T00:08:11.808Z,12.70
2018-12-07T00:11:16.794Z,12.60
2018-12-07T00:13:45.528Z,12.50
2018-12-07T00:16:18.061Z,12.50
2018-12-07T00:19:12.896Z,12.50
2018-12-07T00:21:47.082Z,12.50
2018-12-07T00:24:15.554Z,12.40
2018-12-07T00:26:52.203Z,12.40
2018-12-07T00:29:20.115Z,12.50
2018-12-07T00:31:47.998Z,12.60
2018-12-07T00:34:15.930Z,12.60
2018-12-07T00:37:03.983Z,12.60
2018-12-07T00:39:31.960Z,12.60
2018-12-07T00:41:59.854Z,12.50
2018-12-07T00:44:28.191Z,12.40
2018-12-07T00:46:56.554Z,12.40
2018-12-07T00:49:24.444Z,12.40
2018-12-07T00:51:52.307Z,12.40
2018-12-07T00:54:20.259Z,12.30
2018-12-07T00:56:56.599Z,12.30
2018-12-07T00:59:24.552Z,12.30
2018-12-07T01:01:53.628Z,12.20
2018-12-07T01:04:21.570Z,12.20
2018-12-07T01:06:51.921Z,12.20
2018-12-07T01:09:19.812Z,12.20
2018-12-07T01:11:47.729Z,12.30
2018-12-07T01:14:22.243Z,12.20
2018-12-07T01:16:50.243Z,12.20
2018-12-07T01:19:18.135Z,12.20
2018-12-07T01:21:46.045Z,12.30
2018-12-07T01:24:20.441Z,12.40
2018-12-07T01:26:48.300Z,12.40
2018-12-07T01:29:16.213Z,12.60
2018-12-07T01:31:44.383Z,12.60
2018-12-07T01:34:12.256Z,12.60
2018-12-07T01:36:40.209Z,12.60
2018-12-07T01:39:09.627Z,12.50
2018-12-07T01:41:37.789Z,12.50
2018-12-07T01:44:05.802Z,12.50
2018-12-07T01:46:33.690Z,12.50
2018-12-07T01:49:01.572Z,12.70
2018-12-07T01:51:29.948Z,12.70
2018-12-07T01:53:57.846Z,12.80
2018-12-07T01:56:25.704Z,12.80
2018-12-07T01:58:55.082Z,12.70
2018-12-07T02:01:22.974Z,12.80
2018-12-07T02:03:50.846Z,12.80
2018-12-07T02:06:19.078Z,12.70
2018-12-07T02:08:47.232Z,12.70
2018-12-07T02:11:15.279Z,12.70
2018-12-07T02:13:43.578Z,12.90
2018-12-07T02:16:11.465Z,13.00
2018-12-07T02:18:39.363Z,13.10
2018-12-07T02:21:52.294Z,13.20
2018-12-07T02:24:20.277Z,13.30
2018-12-07T02:26:48.233Z,13.50
2018-12-07T02:29:16.571Z,13.60
2018-12-07T02:31:44.549Z,13.60
2018-12-07T02:34:12.802Z,13.60
2018-12-07T02:37:10.390Z,13.60
2018-12-07T02:39:38.294Z,13.70
2018-12-07T02:42:15.625Z,13.70
2018-12-07T02:44:43.521Z,13.70
2018-12-07T02:47:11.458Z,13.70
2018-12-07T02:49:57.349Z,13.80
2018-12-07T02:52:25.400Z,13.60
2018-12-07T02:54:53.449Z,13.50
2018-12-07T02:57:22.767Z,13.70
2018-12-07T02:59:50.672Z,13.60
2018-12-07T03:02:18.715Z,13.80
2018-12-07T03:04:46.936Z,13.70
2018-12-07T03:07:14.907Z,13.80
2018-12-07T03:09:44.012Z,13.80
2018-12-07T03:12:11.874Z,13.70
2018-12-07T03:14:39.788Z,13.70
2018-12-07T03:17:14.245Z,13.70
2018-12-07T03:20:19.932Z,13.70
2018-12-07T03:22:47.822Z,13.90
2018-12-07T03:25:23.486Z,13.90
2018-12-07T03:27:51.424Z,14.00
2018-12-07T03:30:22.163Z,14.00
2018-12-07T03:32:50.444Z,13.80
2018-12-07T03:35:41.085Z,13.80
2018-12-07T03:38:09.081Z,13.70
2018-12-07T03:40:37.346Z,13.70
2018-12-07T03:43:10.058Z,13.60
2018-12-07T03:45:37.951Z,13.60
2018-12-07T03:48:05.838Z,13.40
2018-12-07T03:50:53.491Z,13.40
2018-12-07T03:53:21.388Z,13.40
2018-12-07T03:55:50.722Z,13.50
2018-12-07T03:58:21.028Z,13.40
2018-12-07T04:00:48.894Z,13.50
2018-12-07T04:03:26.496Z,13.40
2018-12-07T04:05:54.432Z,13.20
2018-12-07T04:08:22.380Z,13.20
2018-12-07T04:10:50.647Z,13.20
2018-12-07T04:13:19.101Z,13.20
2018-12-07T04:15:47.058Z,13.20
2018-12-07T04:18:14.975Z,13.10
2018-12-07T04:20:43.200Z,13.10
2018-12-07T04:23:30.243Z,13.00
2018-12-07T04:25:58.148Z,13.20
2018-12-07T04:28:26.020Z,13.40
2018-12-07T04:31:00.168Z,13.50
2018-12-07T04:33:28.098Z,13.60
2018-12-07T04:35:56.035Z,13.60
2018-12-07T04:38:24.207Z,13.50
2018-12-07T04:40:52.662Z,13.40
2018-12-07T04:43:20.544Z,13.50
2018-12-07T04:45:48.776Z,13.70
2018-12-07T04:48:16.701Z,13.70
2018-12-07T04:50:44.612Z,13.70
2018-12-07T04:53:13.929Z,13.70
2018-12-07T04:55:41.827Z,13.80
2018-12-07T04:58:09.809Z,13.80
2018-12-07T05:00:38.015Z,13.60
2018-12-07T05:03:05.948Z,13.70
2018-12-07T05:05:34.219Z,13.80
2018-12-07T05:08:02.513Z,13.90
2018-12-07T05:10:30.429Z,14.00
2018-12-07T05:12:58.680Z,14.10
2018-12-07T05:15:27.108Z,14.10
2018-12-07T05:17:55.023Z,14.00
2018-12-07T05:20:58.126Z,14.10
2018-12-07T05:23:26.010Z,14.00
2018-12-07T05:25:53.975Z,14.10
2018-12-07T05:28:44.686Z,14.10
2018-12-07T05:31:12.623Z,14.20
2018-12-07T05:33:40.643Z,14.20
2018-12-07T05:36:48.467Z,14.30
2018-12-07T05:39:16.382Z,14.30
2018-12-07T05:41:44.297Z,14.40
2018-12-07T05:44:12.532Z,14.10
2018-12-07T05:46:40.440Z,14.00
2018-12-07T05:49:25.606Z,13.90
2018-12-07T05:51:53.575Z,14.00
2018-12-07T05:54:21.775Z,14.20
2018-12-07T05:56:49.777Z,14.10
2018-12-07T05:59:17.754Z,14.20
2018-12-07T06:01:49.533Z,14.20
2018-12-07T06:04:17.431Z,14.10
2018-12-07T06:06:45.478Z,14.00
2018-12-07T06:09:19.806Z,14.00
2018-12-07T06:11:47.688Z,14.20
2018-12-07T06:14:15.671Z,14.20
2018-12-07T06:16:43.559Z,14.20
2018-12-07T06:19:11.764Z,14.20
2018-12-07T06:21:39.823Z,14.20
2018-12-07T06:24:07.776Z,14.20
2018-12-07T06:29:55.652Z,14.20
2018-12-07T06:32:23.573Z,14.00
2018-12-07T06:34:51.572Z,13.90
2018-12-07T06:37:29.977Z,14.00
2018-12-07T06:39:57.851Z,13.90
2018-12-07T06:42:25.811Z,14.00
2018-12-07T06:44:53.722Z,14.20
2018-12-07T06:47:21.892Z,14.20
2018-12-07T06:49:50.062Z,14.20
2018-12-07T06:52:17.997Z,14.20
2018-12-07T06:54:46.207Z,14.30
2018-12-07T06:57:14.459Z,14.40
2018-12-07T06:59:42.328Z,14.30
2018-12-07T07:02:11.041Z,14.40
2018-12-07T07:04:38.932Z,14.40
2018-12-07T07:07:06.875Z,14.50
2018-12-07T07:09:34.803Z,14.40
2018-12-07T07:12:03.014Z,14.50
2018-12-07T07:14:30.956Z,14.70
2018-12-07T07:16:59.212Z,14.60
2018-12-07T07:19:27.117Z,14.70
2018-12-07T07:21:55.022Z,14.80
2018-12-07T07:24:28.917Z,14.80
2018-12-07T07:26:56.822Z,14.80
2018-12-07T07:29:24.733Z,14.70
2018-12-07T07:32:00.133Z,14.50
2018-12-07T07:34:28.003Z,14.20
2018-12-07T07:36:55.973Z,14.30
2018-12-07T07:39:23.834Z,14.30
2018-12-07T07:41:59.714Z,14.40
2018-12-07T07:44:27.724Z,14.40
2018-12-07T07:46:55.627Z,14.40
2018-12-07T07:49:23.496Z,14.40
2018-12-07T07:52:03.505Z,14.50
2018-12-07T07:54:58.240Z,14.40
2018-12-07T07:57:26.476Z,14.30
2018-12-07T07:59:54.399Z,14.00
2018-12-07T08:02:22.364Z,14.10
2018-12-07T08:04:52.486Z,14.10
2018-12-07T08:07:20.365Z,14.20
2018-12-07T08:09:48.553Z,14.10
2018-12-07T08:12:16.609Z,14.00
2018-12-07T08:14:44.885Z,14.00
2018-12-07T08:17:21.916Z,14.10
2018-12-07T08:19:52.552Z,14.00
2018-12-07T08:22:20.432Z,13.90
2018-12-07T08:24:56.693Z,14.00
2018-12-07T08:27:25.073Z,14.10
2018-12-07T08:30:06.864Z,14.20
2018-12-07T08:32:41.232Z,14.20
2018-12-07T08:35:09.149Z,14.40
2018-12-07T08:37:37.049Z,14.40
2018-12-07T08:40:07.131Z,14.20
2018-12-07T08:42:35.048Z,14.20
2018-12-07T08:46:52.863Z,14.20
2018-12-07T08:49:38.872Z,14.10
2018-12-07T08:52:08.159Z,14.10
2018-12-07T08:54:36.155Z,14.10
2018-12-07T08:57:04.114Z,14.40
2018-12-07T08:59:36.613Z,14.50
2018-12-07T09:02:04.594Z,14.40
2018-12-07T09:04:32.504Z,14.40
2018-12-07T09:07:00.394Z,14.40
2018-12-07T09:09:28.280Z,14.40
2018-12-07T09:12:11.734Z,14.50
2018-12-07T09:14:39.579Z,14.70
2018-12-07T09:17:07.450Z,14.80
2018-12-07T09:19:54.433Z,14.80
2018-12-07T09:22:22.402Z,14.70
2018-12-07T09:24:50.402Z,14.40
2018-12-07T09:27:18.604Z,14.30
2018-12-07T09:29:46.505Z,14.20
2018-12-07T09:32:14.389Z,14.10
2018-12-07T09:34:50.115Z,14.20
2018-12-07T09:37:16.065Z,14.30
2018-12-07T09:39:44.212Z,14.40
2018-12-07T09:42:12.692Z,14.60
2018-12-07T09:44:40.524Z,14.70
2018-12-07T09:47:21.656Z,14.80
2018-12-07T09:49:49.562Z,14.70
